Time;durP1;ratioP1;P1;durP2;ratioP2;P2;SDS_P1;SDS_P2;PMS_P1;PMS_P2;Temp;Humidity;BMP_temperature;BMP_pressure;BME280_temperature;BME280_humidity;BME280_pressure;Samples;Min_cycle;Max_cycle;Signal;HPM_P1;HPM_P2
2024/01/12 00:01:04;;;;;;;;;;;11.50;39.90;;;11.68;42.92;102426.19;5071400;28;20383;-36
2024/01/12 00:03:32;;;;;;;;;;;11.50;39.90;;;11.68;42.75;102426.19;5072524;28;20394;-36
2024/01/12 00:06:00;;;;;;;;;;;11.50;39.90;;;11.69;42.83;102428.03;5075390;28;20471;-36
2024/01/12 00:08:28;;;;;;;;;;;11.50;39.90;;;11.71;42.61;102421.63;5076965;28;19924;-36
2024/01/12 00:10:56;;;;;;;;;;;11.50;39.90;;;11.69;42.71;102417.97;5075770;28;19925;-35
2024/01/12 00:13:25;;;;;;;;;;;11.50;39.90;;;11.66;42.93;102412.47;5076711;28;20019;-36
2024/01/12 00:15:53;;;;;;;;;;;11.50;39.90;;;11.69;43.09;102417.97;5076145;28;19950;-36
2024/01/12 00:18:21;;;;;;;;;;;11.50;39.90;;;11.70;43.25;102414.75;5075992;28;20007;-36
2024/01/12 00:20:50;;;;;;;;;;;11.60;40.00;;;11.70;42.72;102405.63;5075482;28;19924;-36
2024/01/12 00:23:17;;;;;;;;;;;11.60;40.00;;;11.70;42.76;102415.69;5075683;28;20388;-36
2024/01/12 00:25:46;;;;;;;;;;;11.50;39.90;;;11.72;42.42;102400.84;5075485;28;20433;-36
2024/01/12 00:28:13;;;;;;;;;;;11.60;40.00;;;11.70;42.71;102404.72;5075838;28;20531;-35
2024/01/12 00:30:45;;;;;;;;;;;11.60;40.00;;;11.66;42.77;102407.44;5075452;28;19925;-36
2024/01/12 00:33:13;;;;;;;;;;;11.50;39.90;;;11.69;43.18;102423.91;5075654;28;19925;-36
2024/01/12 00:35:41;;;;;;;;;;;11.50;40.00;;;11.71;43.01;102419.09;5075549;28;19999;-36
2024/01/12 00:38:09;;;;;;;;;;;11.60;40.00;;;11.70;42.95;102409.72;5075795;28;19932;-36
2024/01/12 00:40:37;;;;;;;;;;;11.50;39.90;;;11.70;42.77;102399.69;5075073;28;19932;-34
2024/01/12 00:43:05;;;;;;;;;;;11.50;40.00;;;11.70;42.96;102399.69;5075945;28;20018;-34
2024/01/12 00:45:33;;;;;;;;;;;11.60;40.00;;;11.68;43.32;102411.13;5075644;28;20018;-34
2024/01/12 00:48:02;;;;;;;;;;;11.50;39.90;;;11.66;42.87;102418.41;5075559;28;20028;-34
2024/01/12 00:50:30;;;;;;;;;;;11.50;40.00;;;11.67;42.57;102409.28;5074819;28;19924;-34
2024/01/12 00:52:58;;;;;;;;;;;11.50;40.00;;;11.67;42.83;102414.31;5075196;28;19978;-34
2024/01/12 00:55:26;;;;;;;;;;;11.50;40.00;;;11.66;43.01;102412.47;5075497;28;19931;-34
2024/01/12 00:57:55;;;;;;;;;;;11.50;40.00;;;11.66;42.73;102418.41;5075257;28;19928;-34
2024/01/12 01:00:22;;;;;;;;;;;11.50;40.00;;;11.64;42.83;102419.75;5066929;28;19924;-34
2024/01/12 01:02:50;;;;;;;;;;;11.50;40.10;;;11.70;43.33;102419.78;5075516;28;19931;-35
2024/01/12 01:05:20;;;;;;;;;;;11.50;40.10;;;11.68;42.91;102411.13;5075347;28;19990;-34
2024/01/12 01:07:48;;;;;;;;;;;11.50;40.00;;;11.65;43.24;102405.59;5075387;28;19946;-34
2024/01/12 01:10:16;;;;;;;;;;;11.50;40.00;;;11.67;43.09;102394.22;5074548;28;20019;-34
2024/01/12 01:12:44;;;;;;;;;;;11.50;40.10;;;11.67;43.08;102384.16;5075032;28;19932;-35
2024/01/12 01:15:14;;;;;;;;;;;11.50;40.00;;;11.66;42.69;102384.84;5074547;28;19924;-35
2024/01/12 01:17:42;;;;;;;;;;;11.50;40.00;;;11.66;42.70;102389.88;5075122;28;20396;-35
2024/01/12 01:20:11;;;;;;;;;;;11.50;40.10;;;11.67;43.36;102396.72;5074332;28;19924;-35
2024/01/12 01:22:40;;;;;;;;;;;11.50;40.10;;;11.69;42.76;102392.88;5075019;28;19962;-35
2024/01/12 01:25:10;;;;;;;;;;;11.50;40.00;;;11.66;43.08;102397.41;5074925;28;19924;-35
2024/01/12 01:27:37;;;;;;;;;;;11.50;40.20;;;11.68;42.71;102401.06;5074692;28;20426;-34
2024/01/12 01:30:07;;;;;;;;;;;11.50;40.10;;;11.65;43.19;102396.47;5074105;28;20324;-35
2024/01/12 01:32:35;;;;;;;;;;;11.50;40.10;;;11.66;43.16;102397.41;5074797;28;19962;-35
2024/01/12 01:35:03;;;;;;;;;;;11.50;40.10;;;11.68;43.04;102396.06;5074085;28;20466;-35
2024/01/12 01:37:32;;;;;;;;;;;11.50;40.10;;;11.69;42.93;102395.38;5074751;28;20308;-35
2024/01/12 01:40:02;;;;;;;;;;;11.50;40.00;;;11.72;43.05;102417.50;5073668;28;20428;-35
2024/01/12 01:42:30;;;;;;;;;;;11.60;40.20;;;11.68;42.52;102401.06;5075263;28;20260;-35
2024/01/12 01:44:58;;;;;;;;;;;11.50;40.10;;;11.65;43.01;102405.59;5074727;28;19970;-35
2024/01/12 01:47:26;;;;;;;;;;;11.50;40.20;;;11.67;43.50;102404.25;5074466;28;19924;-35
2024/01/12 01:49:54;;;;;;;;;;;11.50;40.80;;;11.69;43.56;102400.41;5073970;28;19925;-35
2024/01/12 01:52:22;;;;;;;;;;;11.50;40.10;;;11.67;43.09;102395.13;5074011;28;20366;-35
2024/01/12 01:54:50;;;;;;;;;;;11.50;40.10;;;11.68;43.48;102416.13;5074446;28;19975;-35
2024/01/12 01:57:19;;;;;;;;;;;11.50;40.10;;;11.68;42.48;102413.63;5074157;28;19925;-35
2024/01/12 01:59:47;;;;;;;;;;;11.50;40.10;;;11.67;42.68;102409.28;5073496;28;19925;-35
2024/01/12 02:02:15;;;;;;;;;;;11.50;40.10;;;11.70;42.95;102424.81;5073842;28;19935;-35
2024/01/12 02:04:43;;;;;;;;;;;11.50;40.10;;;11.69;42.44;102423.00;5073977;28;19924;-35
2024/01/12 02:07:11;;;;;;;;;;;11.50;40.10;;;11.69;42.64;102417.97;5073854;28;20334;-35
2024/01/12 02:09:39;;;;;;;;;;;11.50;40.10;;;11.69;43.29;102423.00;5073396;28;19978;-35
2024/01/12 02:12:07;;;;;;;;;;;11.50;40.10;;;11.68;43.03;102422.09;5073825;28;19932;-35
2024/01/12 02:14:36;;;;;;;;;;;11.50;40.20;;;11.68;43.36;102421.16;5073881;28;19929;-35
2024/01/12 02:17:04;;;;;;;;;;;11.50;40.20;;;11.63;42.67;102409.50;5073579;28;19928;-35
2024/01/12 02:19:32;;;;;;;;;;;11.50;40.20;;;11.68;42.95;102418.66;5073018;28;19960;-35
2024/01/12 02:22:02;;;;;;;;;;;11.50;40.20;;;11.67;43.08;102414.31;5073761;28;20011;-35
2024/01/12 02:24:29;;;;;;;;;;;11.50;40.20;;;11.64;43.49;102418.84;5073719;28;20363;-35
2024/01/12 02:26:57;;;;;;;;;;;11.50;40.30;;;11.68;42.76;102416.13;5072905;28;19924;-35
2024/01/12 02:29:25;;;;;;;;;;;11.50;40.20;;;11.68;43.66;102422.09;5064911;28;19929;-34
2024/01/12 02:31:53;;;;;;;;;;;11.50;40.20;;;11.64;42.93;102423.84;5073682;28;20254;-35
2024/01/12 02:34:21;;;;;;;;;;;11.50;40.20;;;11.66;42.72;102423.44;5073047;28;20023;-35
2024/01/12 02:36:49;;;;;;;;;;;11.50;40.20;;;11.69;43.12;102423.00;5073501;28;20023;-35
2024/01/12 02:39:18;;;;;;;;;;;11.50;40.20;;;11.68;42.49;102426.19;5073422;28;19970;-35
2024/01/12 02:41:46;;;;;;;;;;;11.50;40.20;;;11.69;43.27;102433.97;5072884;28;19931;-35
2024/01/12 02:44:14;;;;;;;;;;;11.50;40.20;;;11.68;43.69;102429.63;5073116;28;20027;-35
2024/01/12 02:46:42;;;;;;;;;;;11.50;40.30;;;11.70;42.80;102429.81;5073171;28;19964;-35
2024/01/12 02:49:10;;;;;;;;;;;11.50;40.20;;;11.67;42.96;102427.78;5073454;28;19931;-35
2024/01/12 02:51:38;;;;;;;;;;;11.50;40.20;;;11.67;42.88;102427.78;5072425;28;19946;-35
2024/01/12 02:54:06;;;;;;;;;;;11.50;40.20;;;11.71;43.12;102421.63;5072710;28;20023;-35
2024/01/12 02:56:36;;;;;;;;;;;11.50;40.20;;;11.70;43.27;102429.81;5073162;28;19978;-35
2024/01/12 02:59:04;;;;;;;;;;;11.60;40.30;;;11.68;43.09;102416.13;5072899;28;20168;-35
2024/01/12 03:01:34;;;;;;;;;;;11.50;40.20;;;11.68;42.87;102416.13;5072603;28;20018;-35
2024/01/12 03:04:02;;;;;;;;;;;11.50;40.20;;;11.69;42.74;102415.47;5073073;28;19924;-35
2024/01/12 03:06:30;;;;;;;;;;;11.50;40.20;;;11.68;43.01;102421.16;5065440;28;19924;-35
2024/01/12 03:08:58;;;;;;;;;;;11.50;40.20;;;11.66;43.47;102413.38;5073028;28;19925;-35
2024/01/12 03:11:26;;;;;;;;;;;11.50;40.20;;;11.68;43.15;102418.66;5072045;28;20465;-35
2024/01/12 03:13:55;;;;;;;;;;;11.50;40.20;;;11.71;42.77;102406.56;5072866;28;19967;-35
2024/01/12 03:16:23;;;;;;;;;;;11.60;40.40;;;11.68;42.72;102411.13;5072931;28;20638;-35
2024/01/12 03:18:51;;;;;;;;;;;11.50;40.20;;;11.68;43.37;102416.13;5072974;28;19925;-35
2024/01/12 03:21:20;;;;;;;;;;;11.50;40.20;;;11.67;42.99;102414.31;5071997;28;19924;-35
2024/01/12 03:23:48;;;;;;;;;;;11.50;40.30;;;11.70;43.58;102417.28;5072577;28;19931;-35
2024/01/12 03:26:16;;;;;;;;;;;11.50;40.30;;;11.67;43.26;102424.34;5072480;28;19979;-35
2024/01/12 03:28:45;;;;;;;;;;;11.50;40.20;;;11.66;42.80;102422.50;5072548;28;19931;-35
2024/01/12 03:31:14;;;;;;;;;;;11.50;40.30;;;11.69;42.96;102417.97;5071714;28;19929;-35
2024/01/12 03:33:46;;;;;;;;;;;11.50;40.30;;;11.68;43.27;102413.63;5072683;28;20273;-35
2024/01/12 03:36:14;;;;;;;;;;;11.50;40.30;;;11.67;43.71;102424.34;5072276;28;19924;-35
2024/01/12 03:38:42;;;;;;;;;;;11.50;40.30;;;11.67;43.44;102422.75;5072307;28;20415;-35
2024/01/12 03:41:10;;;;;;;;;;;11.50;40.30;;;11.67;43.27;102417.75;5071988;28;19928;-35
2024/01/12 03:43:38;;;;;;;;;;;11.50;40.30;;;11.68;43.03;102417.06;5072726;28;19924;-34
2024/01/12 03:46:06;;;;;;;;;;;11.50;40.20;;;11.68;43.15;102416.13;5072116;28;19924;-34
2024/01/12 03:48:35;;;;;;;;;;;11.50;40.30;;;11.69;42.67;102407.94;5072433;28;19958;-35
2024/01/12 03:51:04;;;;;;;;;;;11.50;40.30;;;11.69;43.29;102413.88;5072021;28;19935;-35
2024/01/12 03:53:32;;;;;;;;;;;11.60;40.40;;;11.69;42.99;102397.88;5064498;28;19931;-35
2024/01/12 03:56:00;;;;;;;;;;;11.50;40.30;;;11.68;43.76;102391.03;5072242;28;20307;-35
2024/01/12 03:58:28;;;;;;;;;;;11.50;40.30;;;11.70;43.04;102384.63;5072445;28;19925;-35
2024/01/12 04:00:56;;;;;;;;;;;11.50;40.30;;;11.68;42.88;102375.97;5071903;28;19967;-35
2024/01/12 04:03:24;;;;;;;;;;;11.60;40.40;;;11.72;43.21;102380.75;5072248;28;19930;-35
2024/01/12 04:05:53;;;;;;;;;;;11.60;40.30;;;11.69;43.27;102382.81;5071766;28;19972;-35
2024/01/12 04:08:21;;;;;;;;;;;11.60;40.30;;;11.71;43.15;102376.41;5072459;28;19991;-35
2024/01/12 04:10:49;;;;;;;;;;;11.60;40.40;;;11.74;43.02;102376.94;5071738;28;19928;-35
2024/01/12 04:13:17;;;;;;;;;;;11.60;40.30;;;11.74;43.12;102386.97;5071961;28;19924;-35
2024/01/12 04:15:45;;;;;;;;;;;11.60;40.30;;;11.73;43.12;102369.13;5072196;28;19931;-35
2024/01/12 04:18:13;;;;;;;;;;;11.60;40.30;;;11.74;42.99;102366.88;5072010;28;19972;-35
2024/01/12 04:20:41;;;;;;;;;;;11.60;40.30;;;11.71;42.81;102356.31;5071750;28;19931;-35
2024/01/12 04:23:10;;;;;;;;;;;11.60;40.30;;;11.73;42.60;102357.47;5072131;28;20459;-35
2024/01/12 04:25:38;;;;;;;;;;;11.60;40.30;;;11.72;43.27;102353.13;5071908;28;19929;-35
2024/01/12 04:28:07;;;;;;;;;;;11.60;40.30;;;11.73;43.14;102354.97;5072309;28;19924;-35
2024/01/12 04:30:35;;;;;;;;;;;11.60;40.30;;;11.75;43.60;102355.25;5063996;28;20007;-35
2024/01/12 04:33:03;;;;;;;;;;;11.60;40.30;;;11.73;43.02;102357.47;5072165;28;19924;-35
2024/01/12 04:35:31;;;;;;;;;;;11.60;40.40;;;11.74;42.93;102361.88;5071646;28;19930;-35
2024/01/12 04:37:59;;;;;;;;;;;11.60;40.30;;;11.75;43.75;102362.78;5072281;28;20403;-34
2024/01/12 04:40:29;;;;;;;;;;;11.60;40.40;;;11.75;43.04;102363.69;5071486;28;19985;-35
2024/01/12 04:42:57;;;;;;;;;;;11.60;40.30;;;11.73;43.22;102380.09;5071975;28;19956;-35
2024/01/12 04:45:24;;;;;;;;;;;11.60;40.40;;;11.76;43.31;102368.00;5072034;28;19963;-35
2024/01/12 04:47:52;;;;;;;;;;;11.60;40.40;;;11.75;43.03;102367.81;5072001;28;19924;-34
2024/01/12 04:50:21;;;;;;;;;;;11.60;40.30;;;11.72;42.95;102365.69;5072002;28;19924;-35
2024/01/12 04:52:50;;;;;;;;;;;11.60;40.40;;;11.75;42.73;102368.72;5075778;28;19981;-35
2024/01/12 04:55:18;;;;;;;;;;;11.60;40.30;;;11.75;43.23;102372.84;5075038;28;19925;-35
2024/01/12 04:57:47;;;;;;;;;;;11.60;40.30;;;11.74;43.29;102371.91;5075163;28;19986;-35
2024/01/12 05:00:16;;;;;;;;;;;11.60;40.30;;;11.74;43.30;102366.88;5074797;28;20015;-35
2024/01/12 05:02:43;;;;;;;;;;;11.60;40.30;;;11.72;43.16;102368.22;5075236;28;20015;-35
2024/01/12 05:05:12;;;;;;;;;;;11.60;40.40;;;11.76;43.41;102370.53;5075360;28;19975;-35
2024/01/12 05:07:39;;;;;;;;;;;11.60;40.40;;;11.74;43.76;102371.91;5075265;28;20379;-35
2024/01/12 05:10:08;;;;;;;;;;;11.60;40.40;;;11.74;43.79;102371.91;5074925;28;20003;-35
2024/01/12 05:12:36;;;;;;;;;;;11.60;40.40;;;11.75;43.01;102373.75;5067263;28;19924;-35
2024/01/12 05:15:07;;;;;;;;;;;11.60;40.40;;;11.76;43.24;102380.56;5074963;28;19924;-35
2024/01/12 05:17:35;;;;;;;;;;;11.60;40.40;;;11.76;42.99;102380.56;5067042;28;19924;-35
2024/01/12 05:20:06;;;;;;;;;;;11.60;40.40;;;11.70;43.68;102380.53;5074499;28;19929;-35
2024/01/12 05:22:35;;;;;;;;;;;11.60;40.40;;;11.74;42.78;102386.97;5074923;28;19930;-35
2024/01/12 05:25:04;;;;;;;;;;;11.60;40.40;;;11.79;43.01;102395.22;5075043;28;19943;-35
2024/01/12 05:27:32;;;;;;;;;;;11.60;41.00;;;11.73;43.13;102385.09;5074979;28;19924;-35
2024/01/12 05:30:01;;;;;;;;;;;11.60;40.40;;;11.75;42.74;102388.81;5074064;28;20311;-35
2024/01/12 05:32:32;;;;;;;;;;;11.60;40.40;;;11.76;43.20;102385.59;5074809;28;19932;-35
2024/01/12 05:35:00;;;;;;;;;;;11.60;40.40;;;11.76;43.87;102390.63;5072494;28;20391;-35
2024/01/12 05:37:29;;;;;;;;;;;11.60;40.40;;;11.76;43.48;102388.09;5074048;28;19933;-35
2024/01/12 05:39:56;;;;;;;;;;;11.60;40.40;;;11.77;43.67;102392.44;5073563;28;20307;-35
2024/01/12 05:42:25;;;;;;;;;;;11.60;40.40;;;11.80;43.88;102387.91;5073954;28;19924;-35
2024/01/12 05:44:53;;;;;;;;;;;11.60;40.30;;;11.80;43.14;102392.94;5068335;28;20020;-35
2024/01/12 05:47:21;;;;;;;;;;;11.60;40.30;;;11.76;42.70;102390.63;5071620;28;19931;-35
2024/01/12 05:49:50;;;;;;;;;;;11.60;40.40;;;11.78;43.42;102394.28;5073143;28;20314;-35
2024/01/12 05:52:18;;;;;;;;;;;11.60;40.40;;;11.81;43.05;102389.75;5074106;28;19929;-35
2024/01/12 05:54:46;;;;;;;;;;;11.60;40.30;;;11.81;43.24;102389.75;5073602;28;20016;-35
2024/01/12 05:57:14;;;;;;;;;;;11.60;40.30;;;11.79;43.13;102383.56;5073609;28;19968;-36
2024/01/12 05:59:42;;;;;;;;;;;11.60;40.30;;;11.81;43.04;102379.72;5073130;28;19924;-35
2024/01/12 06:02:13;;;;;;;;;;;11.60;40.40;;;11.82;43.47;102370.56;5073281;28;19928;-35
2024/01/12 06:04:41;;;;;;;;;;;11.60;40.30;;;11.78;43.19;102364.16;5073218;28;20384;-35
2024/01/12 06:07:11;;;;;;;;;;;11.60;40.30;;;11.81;43.47;102367.16;5073668;28;19928;-35
2024/01/12 06:09:39;;;;;;;;;;;11.60;40.40;;;11.81;43.14;102367.16;5073135;28;20019;-35
2024/01/12 06:12:07;;;;;;;;;;;11.70;40.50;;;11.80;43.00;102362.78;5073251;28;20019;-35
2024/01/12 06:14:36;;;;;;;;;;;11.60;40.40;;;11.79;43.69;102360.03;5073328;28;19931;-35
2024/01/12 06:17:05;;;;;;;;;;;11.60;40.40;;;11.78;42.85;102349.09;5073010;28;19937;-35
2024/01/12 06:19:32;;;;;;;;;;;11.60;40.40;;;11.79;43.10;102345.91;5072603;28;19925;-35
2024/01/12 06:22:01;;;;;;;;;;;11.60;40.40;;;11.78;43.26;102354.09;5073266;28;19955;-35
2024/01/12 06:24:30;;;;;;;;;;;11.60;40.40;;;11.77;43.27;102362.31;5072718;28;19924;-35
2024/01/12 06:26:58;;;;;;;;;;;11.60;40.50;;;11.78;43.31;102359.13;5073014;28;19925;-37
2024/01/12 06:29:30;;;;;;;;;;;11.60;40.50;;;11.80;43.30;102346.81;5071817;28;20468;-36
2024/01/12 06:31:58;;;;;;;;;;;11.60;40.40;;;11.80;42.93;102345.22;5073094;28;19924;-35
2024/01/12 06:34:26;;;;;;;;;;;11.60;40.40;;;11.76;43.19;102355.47;5072622;28;19924;-36
2024/01/12 06:36:56;;;;;;;;;;;11.60;40.50;;;11.77;43.46;102364.81;5072912;28;19925;-36
2024/01/12 06:39:24;;;;;;;;;;;11.60;40.50;;;11.76;43.57;102350.44;5072751;28;20003;-35
2024/01/12 06:41:53;;;;;;;;;;;11.60;40.50;;;11.78;42.95;102358.22;5072485;28;19975;-35
2024/01/12 06:44:21;;;;;;;;;;;11.60;40.40;;;11.76;42.91;102354.56;5072590;28;19932;-35
2024/01/12 06:46:49;;;;;;;;;;;11.60;40.50;;;11.76;43.13;102349.56;5072680;28;20280;-35
2024/01/12 06:49:17;;;;;;;;;;;11.60;40.50;;;11.80;43.69;102352.75;5072640;28;20003;-35
2024/01/12 06:51:45;;;;;;;;;;;11.60;40.50;;;11.78;43.31;102353.19;5072180;28;20014;-36
2024/01/12 06:54:13;;;;;;;;;;;11.60;40.50;;;11.78;43.98;102354.09;5072019;28;19960;-35
2024/01/12 06:56:43;;;;;;;;;;;11.60;40.50;;;11.73;43.77;102344.94;5064930;28;19928;-35
2024/01/12 06:59:12;;;;;;;;;;;11.60;40.50;;;11.77;42.89;102357.28;5072911;28;19924;-35
2024/01/12 07:01:40;;;;;;;;;;;11.60;40.50;;;11.75;42.85;102348.63;5071814;28;19932;-35
2024/01/12 07:04:08;;;;;;;;;;;11.60;41.10;;;11.75;43.54;102346.13;5072328;28;19931;-35
2024/01/12 07:06:37;;;;;;;;;;;11.60;40.50;;;11.77;43.82;102339.72;5071796;28;19932;-35
2024/01/12 07:09:06;;;;;;;;;;;11.60;40.50;;;11.76;43.11;102335.38;5071843;28;20391;-36
2024/01/12 07:11:34;;;;;;;;;;;11.60;40.50;;;11.76;43.68;102339.50;5071413;28;19991;-35
2024/01/12 07:14:02;;;;;;;;;;;11.60;41.20;;;11.74;43.93;102341.78;5071402;28;19954;-35
2024/01/12 07:16:31;;;;;;;;;;;11.60;40.60;;;11.75;43.72;102338.59;5071439;28;19928;-35
2024/01/12 07:18:59;;;;;;;;;;;11.60;40.60;;;11.78;42.95;102345.66;5072203;28;19931;-36
2024/01/12 07:21:27;;;;;;;;;;;11.60;40.60;;;11.72;43.84;102343.09;5070877;28;19931;-35
2024/01/12 07:23:55;;;;;;;;;;;11.60;40.60;;;11.74;43.56;102341.78;5072004;28;20383;-35
2024/01/12 07:26:23;;;;;;;;;;;11.60;40.60;;;11.75;43.46;102338.59;5071248;28;19925;-35
2024/01/12 07:28:51;;;;;;;;;;;11.60;40.60;;;11.78;43.01;102354.09;5071606;28;19924;-36
2024/01/12 07:31:19;;;;;;;;;;;11.60;40.50;;;11.76;42.82;102360.47;5070968;28;20176;-35
2024/01/12 07:33:48;;;;;;;;;;;11.60;40.60;;;11.75;43.38;102358.69;5071550;28;20414;-36
2024/01/12 07:36:17;;;;;;;;;;;11.60;40.60;;;11.76;43.93;102365.50;5069863;28;20332;-35
2024/01/12 07:38:44;;;;;;;;;;;11.60;40.60;;;11.76;43.90;102373.03;5063751;28;19947;-35
2024/01/12 07:41:12;;;;;;;;;;;11.60;40.60;;;11.76;43.78;102375.56;5071065;28;20022;-35
2024/01/12 07:43:40;;;;;;;;;;;11.60;40.60;;;11.76;43.38;102365.50;5071504;28;19925;-35
2024/01/12 07:46:08;;;;;;;;;;;11.60;40.60;;;11.75;43.55;102373.75;5071510;28;19924;-35
2024/01/12 07:48:38;;;;;;;;;;;11.60;40.60;;;11.74;43.78;102376.94;5071083;28;20377;-35
2024/01/12 07:51:07;;;;;;;;;;;11.60;40.60;;;11.74;43.63;102381.03;5070776;28;20398;-36
2024/01/12 07:53:35;;;;;;;;;;;11.60;40.60;;;11.75;43.42;102377.84;5071325;28;19947;-35
2024/01/12 07:56:03;;;;;;;;;;;11.60;40.60;;;11.76;43.84;102380.56;5071162;28;20030;-35
2024/01/12 07:58:31;;;;;;;;;;;11.60;40.60;;;11.74;43.59;102376.00;5071315;28;19978;-35
2024/01/12 08:01:00;;;;;;;;;;;11.60;40.70;;;11.72;43.60;102370.72;5070740;28;19978;-35
2024/01/12 08:03:28;;;;;;;;;;;11.60;40.70;;;11.74;43.25;102378.53;5071181;28;19936;-35
2024/01/12 08:05:56;;;;;;;;;;;11.60;40.70;;;11.74;43.43;102381.97;5071480;28;19985;-35
2024/01/12 08:08:25;;;;;;;;;;;11.60;40.90;;;11.73;43.41;102380.09;5071446;28;19924;-36
2024/01/12 08:10:53;;;;;;;;;;;11.60;40.70;;;11.72;43.45;102388.28;5071205;28;19977;-35
2024/01/12 08:13:21;;;;;;;;;;;11.60;40.70;;;11.71;43.56;102381.44;5071244;28;19930;-35
2024/01/12 08:15:50;;;;;;;;;;;11.60;40.70;;;11.76;43.97;102388.09;5071380;28;19935;-35
2024/01/12 08:18:18;;;;;;;;;;;11.60;40.70;;;11.75;43.84;102392.91;5071169;28;19924;-35
2024/01/12 08:20:47;;;;;;;;;;;11.60;40.70;;;11.75;43.63;102403.88;5062740;28;19960;-35
2024/01/12 08:23:15;;;;;;;;;;;11.60;40.70;;;11.74;43.66;102394.50;5071211;28;20380;-35
2024/01/12 08:25:45;;;;;;;;;;;11.60;40.70;;;11.73;44.00;102395.16;5072385;28;20472;-35
2024/01/12 08:28:13;;;;;;;;;;;11.60;40.70;;;11.72;43.56;102383.28;5074990;28;19987;-36
2024/01/12 08:30:41;;;;;;;;;;;11.60;40.70;;;11.70;43.78;102379.59;5074473;28;19985;-35
2024/01/12 08:33:09;;;;;;;;;;;11.60;40.70;;;11.73;43.43;102375.06;5075188;28;19925;-35
2024/01/12 08:35:37;;;;;;;;;;;11.60;40.70;;;11.75;43.73;102378.78;5074522;28;20012;-35
2024/01/12 08:38:05;;;;;;;;;;;11.60;40.70;;;11.72;43.33;102388.28;5074871;28;19978;-35
2024/01/12 08:40:33;;;;;;;;;;;11.60;40.70;;;11.75;43.00;102387.91;5073704;28;20307;-35
2024/01/12 08:43:02;;;;;;;;;;;11.60;40.70;;;11.72;43.32;102378.25;5074987;28;20011;-35
2024/01/12 08:45:30;;;;;;;;;;;11.60;40.70;;;11.72;44.17;102385.78;5074177;28;19925;-35
2024/01/12 08:47:58;;;;;;;;;;;11.60;40.70;;;11.56;43.70;102384.13;5074741;28;19980;-35
2024/01/12 08:50:26;;;;;;;;;;;11.60;40.80;;;11.70;43.67;102392.16;5073748;28;19924;-35
2024/01/12 08:52:55;;;;;;;;;;;11.50;40.70;;;11.73;43.80;102395.16;5074654;28;19929;-35
2024/01/12 08:55:23;;;;;;;;;;;11.60;40.80;;;11.74;43.53;102394.50;5073960;28;20376;-36
2024/01/12 08:57:52;;;;;;;;;;;11.60;40.70;;;11.72;43.43;102393.31;5074685;28;19990;-36
2024/01/12 09:00:21;;;;;;;;;;;11.60;41.40;;;11.70;43.50;102388.06;5073699;28;20415;-35
2024/01/12 09:02:49;;;;;;;;;;;11.60;40.80;;;11.71;43.68;102401.53;5074411;28;19967;-35
2024/01/12 09:05:17;;;;;;;;;;;11.60;40.80;;;11.72;44.01;102393.31;5074306;28;19947;-36
2024/01/12 09:07:46;;;;;;;;;;;11.60;40.80;;;11.68;43.69;102386.00;5073814;28;19931;-35
2024/01/12 09:10:14;;;;;;;;;;;11.50;40.70;;;11.69;44.13;102393.78;5074473;28;19931;-36
2024/01/12 09:12:42;;;;;;;;;;;11.50;40.80;;;11.72;43.83;102383.28;5074257;28;19960;-35
2024/01/12 09:15:10;;;;;;;;;;;11.60;40.80;;;11.70;43.23;102385.53;5074082;28;20019;-35
2024/01/12 09:17:40;;;;;;;;;;;11.60;40.80;;;11.68;43.55;102391.03;5073857;28;19929;-35
2024/01/12 09:20:10;;;;;;;;;;;11.50;40.80;;;11.69;44.10;102387.84;5073339;28;19924;-35
2024/01/12 09:22:38;;;;;;;;;;;11.50;40.80;;;11.71;44.21;102391.47;5074102;28;19982;-35
2024/01/12 09:25:06;;;;;;;;;;;11.60;40.80;;;11.70;43.76;102394.66;5073906;28;19971;-36
2024/01/12 09:27:34;;;;;;;;;;;11.60;40.80;;;11.67;43.94;102394.22;5073904;28;19929;-35
2024/01/12 09:30:02;;;;;;;;;;;11.50;40.70;;;11.69;43.65;102388.75;5073381;28;19924;-36
2024/01/12 09:32:30;;;;;;;;;;;11.50;40.80;;;11.72;43.06;102380.75;5073964;28;20377;-36
2024/01/12 09:35:02;;;;;;;;;;;11.60;40.80;;;11.72;43.96;102367.28;5073601;28;19925;-35
2024/01/12 09:37:30;;;;;;;;;;;11.60;40.80;;;11.71;43.58;102378.94;5073274;28;20322;-35
2024/01/12 09:39:58;;;;;;;;;;;11.50;40.70;;;11.73;44.03;102372.56;5073173;28;19977;-35
2024/01/12 09:42:26;;;;;;;;;;;11.60;40.90;;;11.73;44.14;102370.03;5073478;28;19936;-35
2024/01/12 09:44:54;;;;;;;;;;;11.60;40.80;;;11.74;43.86;102369.41;5073304;28;20361;-35
2024/01/12 09:47:35;;;;;;;;;;;11.60;40.80;;;11.73;43.42;102370.03;5073596;28;19932;-35
2024/01/12 09:50:06;;;;;;;;;;;11.60;40.80;;;11.72;43.62;102373.22;5073062;28;19925;-35
2024/01/12 09:52:34;;;;;;;;;;;11.60;40.80;;;11.74;44.02;102373.50;5073418;28;19925;-35
2024/01/12 09:55:02;;;;;;;;;;;11.60;40.80;;;11.74;43.17;102366.88;5073208;28;19924;-36
2024/01/12 09:57:30;;;;;;;;;;;11.60;40.80;;;11.70;43.59;102367.97;5072985;28;20012;-36
2024/01/12 09:59:59;;;;;;;;;;;11.60;40.80;;;11.73;43.50;102370.03;5072574;28;19925;-36
2024/01/12 10:02:27;;;;;;;;;;;11.60;40.80;;;11.78;43.42;102364.16;5073214;28;19987;-35
2024/01/12 10:04:55;;;;;;;;;;;11.60;40.80;;;11.75;43.58;102363.69;5073532;28;19931;-35
2024/01/12 10:07:25;;;;;;;;;;;11.60;40.80;;;11.74;43.14;102361.88;5073212;28;19924;-36
2024/01/12 10:09:53;;;;;;;;;;;11.60;40.80;;;11.73;43.69;102360.00;5064556;28;20019;-36
2024/01/12 10:12:21;;;;;;;;;;;11.60;40.80;;;11.74;44.15;102361.88;5072932;28;20285;-35
2024/01/12 10:14:59;;;;;;;;;;;11.60;40.90;;;11.75;43.32;102366.22;5073242;28;20013;-36
2024/01/12 10:17:28;;;;;;;;;;;11.60;40.80;;;11.75;43.68;102367.81;5073657;28;19931;-35
2024/01/12 10:19:56;;;;;;;;;;;11.60;40.80;;;11.74;43.69;102368.47;5072167;28;19935;-35
2024/01/12 10:22:26;;;;;;;;;;;11.60;40.80;;;11.76;43.61;102365.50;5072750;28;19978;-36
2024/01/12 10:24:58;;;;;;;;;;;11.60;40.80;;;11.74;43.69;102356.84;5064512;28;19924;-35
2024/01/12 10:27:27;;;;;;;;;;;11.60;40.70;;;11.74;43.76;102346.81;5073077;28;19928;-35
2024/01/12 10:29:55;;;;;;;;;;;11.60;40.80;;;11.69;44.03;102337.63;5071828;28;20383;-35
2024/01/12 10:32:23;;;;;;;;;;;11.60;40.80;;;11.76;43.09;102345.41;5072672;28;19928;-35
2024/01/12 10:34:52;;;;;;;;;;;11.60;40.80;;;11.72;43.61;102330.53;5069510;28;19979;-37
2024/01/12 10:37:21;;;;;;;;;;;11.60;40.80;;;11.73;43.52;102334.88;5072342;28;20416;-35
2024/01/12 10:39:51;;;;;;;;;;;11.60;40.90;;;11.74;43.78;102326.72;5071982;28;20015;-36
2024/01/12 10:42:20;;;;;;;;;;;11.60;40.80;;;11.75;44.09;102333.56;5072409;28;19925;-35
2024/01/12 10:44:48;;;;;;;;;;;11.60;40.80;;;11.70;43.68;102330.28;5072009;28;19940;-35
2024/01/12 10:47:17;;;;;;;;;;;11.60;40.80;;;11.71;43.61;102331.22;5072090;28;20316;-37
2024/01/12 10:49:49;;;;;;;;;;;11.60;40.80;;;11.71;43.15;102336.22;5070609;28;20339;-35
2024/01/12 10:52:22;;;;;;;;;;;11.60;40.90;;;11.70;44.14;102324.34;5072389;28;19928;-35
2024/01/12 10:55:04;;;;;;;;;;;11.60;40.90;;;11.72;43.58;102312.97;5072106;28;19925;-35
2024/01/12 10:57:32;;;;;;;;;;;11.60;40.90;;;11.73;43.78;102303.84;5072127;28;20414;-35
2024/01/12 11:00:00;;;;;;;;;;;11.60;40.90;;;11.77;43.95;102309.56;5071268;28;19979;-34
2024/01/12 11:02:29;;;;;;;;;;;11.60;40.90;;;11.75;43.63;102313.47;5072818;28;20376;-35
2024/01/12 11:04:57;;;;;;;;;;;11.60;40.90;;;11.75;44.24;102320.09;5064352;28;19981;-35
2024/01/12 11:07:24;;;;;;;;;;;11.60;40.90;;;11.74;44.04;102316.66;5072094;28;19925;-35
2024/01/12 11:09:54;;;;;;;;;;;11.60;40.80;;;11.75;43.28;102318.50;5071225;28;19975;-35
2024/01/12 11:12:25;;;;;;;;;;;11.60;41.40;;;11.76;43.70;102320.31;5071892;28;20295;-35
2024/01/12 11:14:53;;;;;;;;;;;11.60;40.80;;;11.71;43.29;102323.69;5071585;28;20395;-35